Terminal Aerodrome Forecast
Issued by NWS

Home | Current Version | Previous Version | Text Only | Print | Product List | Glossary On
Versions: 1 2 3 4 5 6 7 8 9 10 11 12 13 14 15 16 17 18
000
FTUS46 KMTR 310500 AAA
TAFOAK
TAF AMD
KOAK 310544Z 3106/0112 31010KT P6SM BKN005
     FM310700 32005KT P6SM OVC005
     FM311700 29007KT P6SM SCT007
     FM312000 31015KT P6SM SKC
     FM010400 30010KT P6SM SKC
     FM010700 32005KT P6SM SKC=

USA.gov is the U.S. government's official web portal to all federal, state and local government web resources and services.